createdAt,value
2022-08-17T00:00:04.292Z,40.87
2022-08-17T00:02:42.856Z,40.79
2022-08-17T00:05:10.293Z,40.78
2022-08-17T00:07:43.300Z,40.79
2022-08-17T00:10:16.250Z,40.83
2022-08-17T00:12:49.336Z,40.76
2022-08-17T00:15:22.268Z,40.73
2022-08-17T00:17:55.228Z,40.79
2022-08-17T00:20:29.212Z,40.72
2022-08-17T00:23:01.225Z,40.80
2022-08-17T00:25:34.304Z,40.75
2022-08-17T00:28:07.298Z,40.78
2022-08-17T00:30:50.964Z,40.77
2022-08-17T00:33:16.611Z,40.80
2022-08-17T00:35:46.255Z,40.84
2022-08-17T00:38:19.348Z,40.88
2022-08-17T00:40:52.294Z,40.94
2022-08-17T00:43:25.323Z,40.97
2022-08-17T00:45:58.269Z,41.16
2022-08-17T00:48:31.296Z,41.08
2022-08-17T00:51:04.358Z,41.22
2022-08-17T00:53:37.333Z,41.26
2022-08-17T00:56:10.329Z,41.23
2022-08-17T00:58:43.409Z,41.22
2022-08-17T01:01:21.808Z,41.26
2022-08-17T01:03:49.400Z,41.59
2022-08-17T01:06:22.345Z,41.38
2022-08-17T01:08:57.604Z,41.29
2022-08-17T01:11:28.378Z,41.28
2022-08-17T01:14:01.353Z,41.21
2022-08-17T01:16:34.344Z,41.26
2022-08-17T01:19:07.361Z,41.26
2022-08-17T01:21:40.436Z,41.31
2022-08-17T01:24:13.358Z,41.29
2022-08-17T01:26:46.422Z,41.33
2022-08-17T01:29:19.383Z,41.34
2022-08-17T01:31:52.427Z,41.23
2022-08-17T01:34:28.263Z,41.33
2022-08-17T01:36:58.412Z,41.30
2022-08-17T01:39:31.466Z,41.16
2022-08-17T01:42:04.351Z,41.14
2022-08-17T01:44:37.416Z,41.13
2022-08-17T01:47:10.373Z,41.12
2022-08-17T01:49:43.427Z,41.12
2022-08-17T01:52:16.365Z,41.06
2022-08-17T01:54:49.406Z,41.08
2022-08-17T01:57:22.382Z,41.13
2022-08-17T01:59:55.488Z,41.14
2022-08-17T02:02:30.801Z,41.11
2022-08-17T02:05:01.438Z,41.19
2022-08-17T02:07:47.933Z,41.24
2022-08-17T02:10:07.426Z,41.29
2022-08-17T02:12:40.449Z,41.25
2022-08-17T02:15:13.504Z,41.32
2022-08-17T02:17:46.209Z,41.24
2022-08-17T02:20:41.574Z,41.23
2022-08-17T02:22:52.510Z,41.25
2022-08-17T02:25:25.438Z,41.23
2022-08-17T02:27:58.518Z,41.15
2022-08-17T02:31:00.282Z,41.16
2022-08-17T02:33:06.373Z,41.19
2022-08-17T02:35:37.484Z,41.43
2022-08-17T02:38:10.496Z,41.25
2022-08-17T02:40:43.459Z,41.36
2022-08-17T02:43:16.507Z,41.41
2022-08-17T02:45:49.458Z,41.54
2022-08-17T02:48:30.445Z,41.70
2022-08-17T02:50:55.551Z,41.89
2022-08-17T02:53:31.860Z,42.07
2022-08-17T02:56:01.540Z,42.18
2022-08-17T02:58:48.472Z,42.34
2022-08-17T03:01:21.267Z,42.42
2022-08-17T03:03:54.583Z,42.52
2022-08-17T03:06:27.307Z,42.53
2022-08-17T03:09:00.509Z,42.59
2022-08-17T03:11:33.514Z,42.59
2022-08-17T03:14:06.577Z,42.64
2022-08-17T03:16:39.520Z,42.58
2022-08-17T03:19:12.326Z,42.75
2022-08-17T03:21:45.476Z,42.74
2022-08-17T03:24:18.490Z,43.00
2022-08-17T03:26:51.608Z,43.02
2022-08-17T03:29:24.573Z,42.94
2022-08-17T03:31:57.533Z,42.86
2022-08-17T03:34:30.525Z,42.84
2022-08-17T03:37:03.598Z,42.70
2022-08-17T03:39:36.598Z,42.52
2022-08-17T03:42:09.559Z,42.43
2022-08-17T03:44:42.529Z,42.38
2022-08-17T03:47:15.523Z,42.32
2022-08-17T03:49:48.535Z,42.25
2022-08-17T03:52:21.630Z,42.28
2022-08-17T03:54:54.533Z,42.26
2022-08-17T03:57:27.621Z,42.26
2022-08-17T04:00:00.644Z,42.20
2022-08-17T04:02:33.571Z,42.45
2022-08-17T04:05:06.637Z,42.34
2022-08-17T04:07:39.383Z,42.20
2022-08-17T04:10:12.235Z,42.65
2022-08-17T04:12:45.410Z,42.86
2022-08-17T04:15:18.536Z,42.73
2022-08-17T04:17:51.651Z,42.36
2022-08-17T04:20:24.297Z,42.85
2022-08-17T04:22:57.589Z,42.29
2022-08-17T04:25:30.398Z,42.51
2022-08-17T04:28:03.453Z,42.06
2022-08-17T04:30:36.426Z,41.96
2022-08-17T04:33:09.504Z,42.40
2022-08-17T04:35:42.447Z,42.88
2022-08-17T04:38:15.681Z,43.94
2022-08-17T04:43:39.938Z,45.56
2022-08-17T04:46:13.632Z,46.02
2022-08-17T04:48:46.706Z,46.04
2022-08-17T04:51:19.691Z,46.24
2022-08-17T04:53:54.022Z,46.25
2022-08-17T04:56:26.096Z,46.08
2022-08-17T04:58:59.474Z,46.33
2022-08-17T05:01:32.566Z,46.39
2022-08-17T05:04:33.158Z,46.30
2022-08-17T05:06:38.404Z,46.59
2022-08-17T05:09:11.539Z,45.88
2022-08-17T05:11:44.892Z,45.41
2022-08-17T05:14:17.362Z,45.84
2022-08-17T05:16:50.431Z,45.66
2022-08-17T05:19:23.547Z,45.61
2022-08-17T05:21:56.470Z,45.53
2022-08-17T05:24:42.508Z,45.15
2022-08-17T05:27:06.277Z,45.04
2022-08-17T05:29:36.010Z,45.03
2022-08-17T05:32:39.439Z,45.05
2022-08-17T05:34:41.372Z,45.23
2022-08-17T05:37:14.374Z,45.11
2022-08-17T05:39:47.584Z,44.96
2022-08-17T05:42:20.559Z,45.22
2022-08-17T05:44:53.788Z,45.36
2022-08-17T05:47:26.486Z,45.67
2022-08-17T05:49:59.405Z,45.59
2022-08-17T05:52:46.815Z,45.59
2022-08-17T05:55:19.687Z,45.53
2022-08-17T05:57:54.225Z,45.55
2022-08-17T06:00:30.639Z,45.76
2022-08-17T06:02:59.717Z,45.76
2022-08-17T06:05:32.772Z,45.85
2022-08-17T06:08:05.421Z,45.99
2022-08-17T06:10:38.417Z,45.99
2022-08-17T06:13:11.758Z,46.04
2022-08-17T06:15:44.571Z,46.11
2022-08-17T06:18:19.194Z,45.90
2022-08-17T06:20:50.542Z,46.01
2022-08-17T06:23:23.641Z,46.12
2022-08-17T06:25:56.581Z,46.27
2022-08-17T06:28:29.614Z,46.42
2022-08-17T06:31:08.338Z,46.40
2022-08-17T06:33:41.605Z,46.08
2022-08-17T06:36:16.079Z,45.77
2022-08-17T06:38:47.541Z,45.58
2022-08-17T06:41:20.476Z,45.43
2022-08-17T06:43:53.621Z,45.32
2022-08-17T06:46:26.601Z,45.26
2022-08-17T06:48:59.859Z,45.15
2022-08-17T06:51:32.770Z,45.07
2022-08-17T06:54:05.778Z,45.04
2022-08-17T06:56:52.697Z,44.95
2022-08-17T06:59:25.412Z,44.89
2022-08-17T07:01:58.545Z,44.79
2022-08-17T07:04:31.655Z,44.76
2022-08-17T07:07:04.799Z,44.72
2022-08-17T07:09:37.575Z,44.70
2022-08-17T07:12:10.508Z,44.71
2022-08-17T07:14:43.534Z,44.68
2022-08-17T07:17:16.667Z,44.70
2022-08-17T07:19:49.805Z,44.64
2022-08-17T07:22:22.636Z,44.61
2022-08-17T07:24:55.545Z,44.59
2022-08-17T07:27:28.644Z,44.56
2022-08-17T07:30:02.954Z,44.52
2022-08-17T07:32:34.704Z,44.50
2022-08-17T07:35:07.609Z,44.50
2022-08-17T07:37:40.732Z,44.49
2022-08-17T07:40:15.958Z,44.41
2022-08-17T07:42:48.558Z,44.40
2022-08-17T07:45:21.565Z,44.40
2022-08-17T07:47:54.709Z,44.32
2022-08-17T07:50:27.743Z,44.36
2022-08-17T07:53:00.711Z,44.38
2022-08-17T07:55:33.665Z,44.37
2022-08-17T07:58:06.754Z,44.33
2022-08-17T08:00:39.606Z,44.31
2022-08-17T08:03:12.875Z,44.31
2022-08-17T08:05:50.044Z,44.28
2022-08-17T08:08:18.975Z,44.26
2022-08-17T08:10:51.744Z,44.26
2022-08-17T08:13:24.656Z,44.25
2022-08-17T08:15:57.676Z,44.24
2022-08-17T08:18:53.706Z,44.23
2022-08-17T08:21:03.784Z,44.23
2022-08-17T08:23:36.644Z,44.20
2022-08-17T08:26:09.904Z,44.19
2022-08-17T08:28:42.774Z,44.20
2022-08-17T08:31:15.898Z,44.19
2022-08-17T08:33:48.990Z,44.20
2022-08-17T08:37:14.295Z,44.18
2022-08-17T08:38:54.682Z,44.15
2022-08-17T08:41:27.636Z,44.13
2022-08-17T08:44:00.746Z,44.14
2022-08-17T08:46:33.951Z,44.14
2022-08-17T08:49:11.880Z,44.12
2022-08-17T08:51:40.050Z,44.11
2022-08-17T08:54:12.652Z,44.11
2022-08-17T08:57:11.929Z,44.10
2022-08-17T08:59:19.007Z,44.08
2022-08-17T09:01:52.051Z,44.09
2022-08-17T09:04:30.820Z,44.08
2022-08-17T09:07:03.851Z,44.08
2022-08-17T09:09:36.800Z,44.06
2022-08-17T09:12:09.717Z,44.04
2022-08-17T09:14:45.463Z,44.05
2022-08-17T09:17:16.514Z,44.05
2022-08-17T09:19:49.074Z,44.04
2022-08-17T09:22:21.966Z,44.03
2022-08-17T09:24:54.688Z,44.02
2022-08-17T09:27:27.891Z,44.00
2022-08-17T09:30:00.818Z,44.02
2022-08-17T09:32:33.934Z,44.04
2022-08-17T09:35:06.866Z,43.98
2022-08-17T09:37:39.846Z,43.98
2022-08-17T09:40:12.825Z,43.96
2022-08-17T09:42:45.858Z,43.95
2022-08-17T09:45:19.000Z,43.98
2022-08-17T09:47:52.095Z,43.93
2022-08-17T09:50:55.516Z,43.92
2022-08-17T09:52:58.033Z,43.89
2022-08-17T09:55:31.114Z,43.89
2022-08-17T09:58:07.102Z,43.89
2022-08-17T10:00:39.988Z,43.91
2022-08-17T10:03:26.712Z,43.88
2022-08-17T10:05:59.985Z,43.91
2022-08-17T10:08:32.807Z,43.86
2022-08-17T10:11:06.199Z,43.87
2022-08-17T10:13:38.870Z,43.84
2022-08-17T10:16:11.774Z,43.88
2022-08-17T10:18:44.881Z,43.84
2022-08-17T10:21:17.831Z,43.83
2022-08-17T10:23:50.907Z,43.82
2022-08-17T10:26:23.968Z,43.83
2022-08-17T10:28:56.772Z,43.82
2022-08-17T10:31:34.819Z,43.79
2022-08-17T10:34:02.776Z,43.82
2022-08-17T10:36:36.074Z,43.78
2022-08-17T10:39:08.818Z,43.78
2022-08-17T10:41:42.045Z,43.80
2022-08-17T10:44:39.907Z,43.79
2022-08-17T10:46:47.887Z,43.80
2022-08-17T10:49:20.911Z,43.80
2022-08-17T10:51:54.009Z,43.80
2022-08-17T10:54:27.068Z,43.81
2022-08-17T10:57:00.062Z,43.81
2022-08-17T10:59:32.925Z,43.83
2022-08-17T11:02:08.002Z,43.80
2022-08-17T11:04:40.926Z,43.83
2022-08-17T11:07:13.952Z,43.86
2022-08-17T11:09:52.964Z,43.80
2022-08-17T11:12:26.052Z,43.82
2022-08-17T11:14:59.108Z,43.80
2022-08-17T11:17:32.024Z,43.79
2022-08-17T11:20:05.086Z,43.80
2022-08-17T11:22:38.037Z,43.79
2022-08-17T11:25:10.997Z,43.80
2022-08-17T11:27:44.044Z,43.78
2022-08-17T11:30:17.402Z,43.82
2022-08-17T11:32:54.811Z,43.86
2022-08-17T11:35:23.043Z,43.74
2022-08-17T11:37:56.073Z,43.74
2022-08-17T11:40:29.099Z,43.76
2022-08-17T11:43:02.140Z,43.75
2022-08-17T11:45:35.012Z,43.73
2022-08-17T11:48:27.316Z,43.70
2022-08-17T11:50:41.051Z,43.66
2022-08-17T11:53:13.940Z,43.65
2022-08-17T11:55:47.227Z,43.67
2022-08-17T11:58:20.074Z,43.58
2022-08-17T12:00:53.048Z,43.55
2022-08-17T12:03:26.247Z,43.55
2022-08-17T12:05:58.918Z,43.52
2022-08-17T12:08:32.121Z,43.50
2022-08-17T12:11:05.101Z,43.56
2022-08-17T12:13:39.434Z,43.47
2022-08-17T12:16:10.982Z,43.44
2022-08-17T12:18:44.142Z,43.45
2022-08-17T12:21:18.361Z,43.47
2022-08-17T12:23:49.953Z,43.45
2022-08-17T12:26:23.120Z,43.45
2022-08-17T12:28:56.088Z,43.49
2022-08-17T12:31:29.138Z,43.45
2022-08-17T12:34:01.978Z,43.46
2022-08-17T12:36:35.186Z,43.43
2022-08-17T12:39:13.772Z,43.43
2022-08-17T12:41:41.135Z,43.47
2022-08-17T12:44:13.986Z,43.44
2022-08-17T12:46:47.187Z,43.45
2022-08-17T12:49:20.050Z,43.43
2022-08-17T12:51:53.188Z,43.46
2022-08-17T12:54:26.006Z,43.45
2022-08-17T12:56:59.086Z,43.45
2022-08-17T12:59:31.998Z,43.45
2022-08-17T13:02:05.143Z,43.45
2022-08-17T13:04:38.206Z,43.46
2022-08-17T13:07:11.075Z,43.44
2022-08-17T13:09:44.264Z,43.44
2022-08-17T13:12:17.317Z,43.46
2022-08-17T13:14:50.124Z,43.44
2022-08-17T13:17:23.255Z,43.42
2022-08-17T13:19:56.014Z,43.46
2022-08-17T13:22:29.290Z,43.54
2022-08-17T13:25:02.234Z,43.52
2022-08-17T13:27:35.174Z,43.47
2022-08-17T13:30:08.227Z,43.44
2022-08-17T13:32:43.945Z,43.46
2022-08-17T13:35:29.650Z,43.47
2022-08-17T13:37:49.539Z,43.54
2022-08-17T13:40:22.331Z,43.39
2022-08-17T13:42:55.124Z,43.50
2022-08-17T13:45:36.562Z,43.52
2022-08-17T13:48:01.289Z,43.50
2022-08-17T13:50:34.072Z,43.48
2022-08-17T13:53:07.280Z,43.47
2022-08-17T13:55:40.228Z,43.42
2022-08-17T13:58:13.080Z,43.39
2022-08-17T14:00:46.275Z,43.38
2022-08-17T14:03:19.274Z,43.38
2022-08-17T14:05:52.185Z,43.36
2022-08-17T14:08:25.290Z,43.35
2022-08-17T14:10:58.238Z,43.32
2022-08-17T14:13:31.249Z,43.31
2022-08-17T14:16:04.400Z,43.29
2022-08-17T14:18:56.103Z,43.28
2022-08-17T14:21:10.157Z,43.25
2022-08-17T14:23:49.102Z,43.25
2022-08-17T14:26:17.147Z,43.24
2022-08-17T14:28:56.247Z,43.23
2022-08-17T14:31:23.137Z,43.35
2022-08-17T14:33:56.546Z,43.98
2022-08-17T14:36:30.397Z,43.68
2022-08-17T14:39:03.158Z,43.98
2022-08-17T14:41:36.266Z,44.12
2022-08-17T14:44:09.208Z,44.22
2022-08-17T14:46:42.264Z,44.50
2022-08-17T14:49:15.181Z,44.60
2022-08-17T14:51:48.362Z,44.72
2022-08-17T14:54:33.041Z,44.78
2022-08-17T14:56:54.282Z,44.69
2022-08-17T14:59:27.368Z,44.80
2022-08-17T15:02:00.249Z,44.74
2022-08-17T15:04:33.333Z,44.63
2022-08-17T15:07:06.168Z,44.63
2022-08-17T15:09:39.438Z,44.54
2022-08-17T15:12:12.190Z,44.56
2022-08-17T15:14:45.345Z,44.64
2022-08-17T15:17:18.485Z,44.62
2022-08-17T15:19:51.407Z,44.61
2022-08-17T15:22:24.314Z,44.60
2022-08-17T15:24:57.375Z,44.57
2022-08-17T15:27:32.727Z,44.58
2022-08-17T15:30:03.249Z,44.57
2022-08-17T15:32:36.371Z,44.51
2022-08-17T15:35:09.236Z,44.51
2022-08-17T15:37:42.522Z,44.49
2022-08-17T15:40:15.605Z,44.51
2022-08-17T15:42:48.217Z,44.51
2022-08-17T15:45:21.414Z,44.53
2022-08-17T15:47:54.239Z,44.54
2022-08-17T15:50:27.250Z,44.53
2022-08-17T15:53:00.395Z,44.55
2022-08-17T15:55:33.560Z,44.55
2022-08-17T15:58:06.421Z,44.48
2022-08-17T16:00:52.914Z,44.49
2022-08-17T16:03:44.544Z,44.63
2022-08-17T16:05:45.470Z,44.45
2022-08-17T16:08:21.084Z,44.48
2022-08-17T16:10:51.307Z,44.43
2022-08-17T16:13:24.658Z,44.44
2022-08-17T16:15:57.702Z,44.39
2022-08-17T16:18:30.702Z,44.49
2022-08-17T16:21:03.307Z,44.52
2022-08-17T16:23:36.440Z,44.51
2022-08-17T16:26:09.285Z,44.67
2022-08-17T16:28:42.462Z,44.58
2022-08-17T16:31:15.488Z,44.59
2022-08-17T16:34:15.689Z,44.68
2022-08-17T16:36:21.595Z,44.74
2022-08-17T16:38:57.417Z,44.71
2022-08-17T16:41:30.460Z,44.74
2022-08-17T16:44:03.506Z,44.86
2022-08-17T16:46:36.562Z,44.87
2022-08-17T16:49:09.336Z,44.92
2022-08-17T16:51:42.546Z,44.99
2022-08-17T16:57:05.722Z,45.43
2022-08-17T16:59:40.896Z,45.19
2022-08-17T17:02:11.477Z,45.12
2022-08-17T17:04:44.525Z,45.23
2022-08-17T17:07:17.455Z,45.31
2022-08-17T17:09:50.592Z,45.28
2022-08-17T17:12:59.435Z,45.21
2022-08-17T17:14:56.378Z,45.33
2022-08-17T17:17:29.520Z,45.24
2022-08-17T17:20:02.504Z,45.31
2022-08-17T17:22:35.583Z,45.37
2022-08-17T17:25:08.382Z,45.27
2022-08-17T17:27:41.574Z,45.29
2022-08-17T17:30:14.434Z,45.28
2022-08-17T17:32:47.477Z,45.27
2022-08-17T17:35:20.533Z,45.28
2022-08-17T17:37:53.593Z,45.34
2022-08-17T17:40:26.593Z,45.48
2022-08-17T17:43:14.246Z,45.51
2022-08-17T17:45:32.408Z,45.47
2022-08-17T17:48:05.502Z,45.58
2022-08-17T17:50:38.578Z,45.61
2022-08-17T17:53:11.431Z,45.59
2022-08-17T17:55:44.775Z,45.70
2022-08-17T17:58:17.430Z,45.75
2022-08-17T18:00:50.626Z,45.89
2022-08-17T18:03:23.495Z,45.94
2022-08-17T18:05:56.623Z,45.91
2022-08-17T18:08:32.363Z,45.93
2022-08-17T18:11:04.726Z,45.84
2022-08-17T18:13:35.607Z,45.81
2022-08-17T18:16:08.455Z,45.82
2022-08-17T18:18:41.584Z,45.81
2022-08-17T18:21:14.609Z,45.77
2022-08-17T18:23:47.509Z,45.77
2022-08-17T18:26:20.749Z,45.75
2022-08-17T18:28:53.508Z,45.68
2022-08-17T18:31:26.490Z,45.63
2022-08-17T18:33:59.612Z,45.69
2022-08-17T18:36:32.552Z,45.94
2022-08-17T18:39:05.534Z,45.75
2022-08-17T18:41:38.532Z,45.88
2022-08-17T18:44:11.495Z,45.89
2022-08-17T18:46:44.601Z,45.88
2022-08-17T18:49:19.485Z,45.85
2022-08-17T18:51:53.511Z,44.82
2022-08-17T18:54:26.779Z,43.71
2022-08-17T18:56:59.802Z,43.61
2022-08-17T18:59:32.892Z,43.23
2022-08-17T19:02:13.711Z,42.51
2022-08-17T19:04:52.578Z,42.44
2022-08-17T19:07:25.824Z,42.78
2022-08-17T19:09:58.582Z,42.29
2022-08-17T19:12:31.730Z,41.95
2022-08-17T19:15:04.614Z,41.82
2022-08-17T19:17:37.656Z,42.35
2022-08-17T19:20:10.546Z,41.89
2022-08-17T19:22:43.721Z,41.92
2022-08-17T19:25:17.098Z,41.83
2022-08-17T19:27:50.083Z,41.52
2022-08-17T19:30:22.840Z,41.53
2022-08-17T19:32:55.764Z,41.51
2022-08-17T19:35:28.636Z,41.33
2022-08-17T19:38:01.661Z,41.34
2022-08-17T19:40:52.228Z,42.26
2022-08-17T19:43:07.724Z,42.55
2022-08-17T19:45:42.569Z,42.66
2022-08-17T19:48:15.565Z,42.77
2022-08-17T19:50:48.664Z,42.88
2022-08-17T19:53:21.762Z,43.10
2022-08-17T19:55:54.987Z,43.07
2022-08-17T19:58:27.762Z,43.10
2022-08-17T20:01:00.988Z,43.29
2022-08-17T20:03:33.718Z,43.26
2022-08-17T20:06:13.153Z,43.24
2022-08-17T20:08:39.777Z,43.22
2022-08-17T20:11:12.637Z,43.41
2022-08-17T20:13:45.752Z,43.37
2022-08-17T20:16:18.786Z,43.40
2022-08-17T20:18:51.617Z,44.13
2022-08-17T20:21:24.742Z,43.88
2022-08-17T20:23:57.614Z,43.66
2022-08-17T20:26:30.796Z,43.16
2022-08-17T20:29:03.716Z,43.07
2022-08-17T20:31:36.828Z,43.08
2022-08-17T20:34:09.661Z,44.16
2022-08-17T20:36:42.835Z,43.69
2022-08-17T20:39:15.962Z,44.17
2022-08-17T20:41:49.038Z,43.21
2022-08-17T20:44:21.965Z,43.17
2022-08-17T20:46:55.061Z,43.79
2022-08-17T20:49:27.836Z,43.68
2022-08-17T20:52:02.382Z,44.00
2022-08-17T20:54:33.973Z,43.64
2022-08-17T20:57:13.973Z,43.98
2022-08-17T20:59:39.970Z,43.38
2022-08-17T21:02:18.430Z,43.27
2022-08-17T21:04:46.050Z,43.09
2022-08-17T21:07:19.071Z,43.11
2022-08-17T21:09:52.047Z,43.49
2022-08-17T21:12:25.011Z,43.20
2022-08-17T21:14:58.116Z,43.16
2022-08-17T21:17:31.033Z,43.34
2022-08-17T21:20:12.392Z,43.66
2022-08-17T21:22:37.026Z,44.32
2022-08-17T21:25:10.098Z,43.54
2022-08-17T21:27:43.012Z,43.38
2022-08-17T21:30:16.110Z,43.36
2022-08-17T21:32:49.116Z,43.46
2022-08-17T21:35:22.004Z,43.02
2022-08-17T21:37:55.040Z,43.16
2022-08-17T21:40:28.002Z,42.90
2022-08-17T21:43:01.125Z,42.88
2022-08-17T21:45:34.147Z,42.91
2022-08-17T21:48:07.069Z,43.08
2022-08-17T21:50:40.148Z,43.09
2022-08-17T21:53:13.008Z,43.13
2022-08-17T21:55:46.162Z,42.92
2022-08-17T21:58:19.103Z,42.87
2022-08-17T22:00:52.263Z,43.00
2022-08-17T22:03:25.044Z,43.19
2022-08-17T22:05:58.194Z,43.51
2022-08-17T22:08:31.110Z,43.66
2022-08-17T22:11:04.174Z,43.24
2022-08-17T22:13:37.168Z,42.72
2022-08-17T22:16:27.763Z,42.63
2022-08-17T22:18:43.177Z,42.40
2022-08-17T22:21:16.164Z,42.51
2022-08-17T22:23:49.190Z,42.38
2022-08-17T22:26:22.062Z,42.56
2022-08-17T22:28:55.209Z,42.37
2022-08-17T22:31:28.073Z,42.37
2022-08-17T22:34:01.206Z,42.44
2022-08-17T22:36:34.220Z,42.67
2022-08-17T22:39:07.162Z,42.90
2022-08-17T22:41:40.164Z,43.31
2022-08-17T22:44:13.187Z,42.95
2022-08-17T22:46:46.125Z,42.97
2022-08-17T22:49:19.202Z,43.22
2022-08-17T22:51:52.112Z,43.11
2022-08-17T22:54:25.167Z,42.76
2022-08-17T22:56:58.158Z,42.87
2022-08-17T22:59:31.253Z,43.06
2022-08-17T23:02:04.139Z,42.97
2022-08-17T23:04:37.210Z,43.10
2022-08-17T23:07:10.157Z,43.06
2022-08-17T23:09:43.232Z,42.95
2022-08-17T23:12:16.291Z,42.91
2022-08-17T23:14:49.155Z,42.94
2022-08-17T23:17:22.183Z,43.10
2022-08-17T23:19:55.223Z,43.14
2022-08-17T23:22:27.878Z,43.05
2022-08-17T23:25:01.274Z,42.86
2022-08-17T23:27:34.221Z,42.79
2022-08-17T23:30:07.249Z,43.07
2022-08-17T23:32:44.338Z,42.82
2022-08-17T23:35:13.201Z,42.71
2022-08-17T23:37:46.261Z,42.63
2022-08-17T23:40:19.267Z,42.72
2022-08-17T23:42:52.318Z,42.56
2022-08-17T23:45:25.180Z,42.58
2022-08-17T23:47:58.243Z,42.50
2022-08-17T23:50:31.316Z,42.46
2022-08-17T23:53:04.184Z,42.58
2022-08-17T23:55:37.325Z,42.75
2022-08-17T23:58:10.298Z,43.00
